sensor_id;sensor_type;location;lat;lon;timestamp;pressure;altitude;pressure_sealevel;temperature;humidity
63006;BME280;53704;52.532;6.426;2023-07-02T00:01:44;100566.31;;;15.60;100.00
63006;BME280;53704;52.532;6.426;2023-07-02T00:04:09;100557.56;;;15.58;100.00
63006;BME280;53704;52.532;6.426;2023-07-02T00:06:38;100563.19;;;15.56;100.00
63006;BME280;53704;52.532;6.426;2023-07-02T00:09:06;100568.97;;;15.46;100.00
63006;BME280;53704;52.532;6.426;2023-07-02T00:11:32;100569.44;;;15.63;100.00
63006;BME280;53704;52.532;6.426;2023-07-02T00:13:58;100565.91;;;15.69;100.00
63006;BME280;53704;52.532;6.426;2023-07-02T00:16:23;100564.44;;;15.67;100.00
63006;BME280;53704;52.532;6.426;2023-07-02T00:18:50;100567.34;;;15.65;100.00
63006;BME280;53704;52.532;6.426;2023-07-02T00:21:21;100558.97;;;15.53;100.00
63006;BME280;53704;52.532;6.426;2023-07-02T00:23:47;100556.97;;;15.69;100.00
63006;BME280;53704;52.532;6.426;2023-07-02T00:26:13;100559.47;;;15.70;100.00
63006;BME280;53704;52.532;6.426;2023-07-02T00:28:39;100552.34;;;15.69;100.00
63006;BME280;53704;52.532;6.426;2023-07-02T00:31:04;100550.44;;;15.63;100.00
63006;BME280;53704;52.532;6.426;2023-07-02T00:33:31;100562.22;;;15.84;100.00
63006;BME280;53704;52.532;6.426;2023-07-02T00:35:57;100554.66;;;15.72;100.00
63006;BME280;53704;52.532;6.426;2023-07-02T00:38:25;100550.75;;;15.88;100.00
63006;BME280;53704;52.532;6.426;2023-07-02T00:40:51;100551.19;;;15.92;100.00
63006;BME280;53704;52.532;6.426;2023-07-02T00:43:16;100559.06;;;15.73;100.00
63006;BME280;53704;52.532;6.426;2023-07-02T00:45:42;100561.19;;;15.78;100.00
63006;BME280;53704;52.532;6.426;2023-07-02T00:48:08;100561.13;;;15.71;100.00
63006;BME280;53704;52.532;6.426;2023-07-02T00:50:33;100567.88;;;15.82;100.00
63006;BME280;53704;52.532;6.426;2023-07-02T00:52:58;100571.53;;;15.61;100.00
63006;BME280;53704;52.532;6.426;2023-07-02T00:55:24;100564.28;;;15.27;100.00
63006;BME280;53704;52.532;6.426;2023-07-02T00:57:50;100561.13;;;15.16;100.00
63006;BME280;53704;52.532;6.426;2023-07-02T01:00:16;100550.47;;;15.15;100.00
63006;BME280;53704;52.532;6.426;2023-07-02T01:02:42;100548.84;;;15.27;100.00
63006;BME280;53704;52.532;6.426;2023-07-02T01:05:15;100547.34;;;15.18;100.00
63006;BME280;53704;52.532;6.426;2023-07-02T01:07:41;100544.09;;;15.36;100.00
63006;BME280;53704;52.532;6.426;2023-07-02T01:10:06;100541.09;;;15.17;100.00
63006;BME280;53704;52.532;6.426;2023-07-02T01:12:33;100546.72;;;15.16;100.00
63006;BME280;53704;52.532;6.426;2023-07-02T01:15:02;100544.81;;;15.10;100.00
63006;BME280;53704;52.532;6.426;2023-07-02T01:17:29;100546.59;;;14.96;100.00
63006;BME280;53704;52.532;6.426;2023-07-02T01:20:03;100540.19;;;15.04;100.00
63006;BME280;53704;52.532;6.426;2023-07-02T01:22:30;100544.50;;;14.91;100.00
63006;BME280;53704;52.532;6.426;2023-07-02T01:24:56;100549.78;;;14.71;100.00
63006;BME280;53704;52.532;6.426;2023-07-02T01:27:22;100546.06;;;14.72;100.00
63006;BME280;53704;52.532;6.426;2023-07-02T01:29:51;100554.44;;;14.77;100.00
63006;BME280;53704;52.532;6.426;2023-07-02T01:32:16;100554.06;;;14.87;100.00
63006;BME280;53704;52.532;6.426;2023-07-02T01:34:42;100551.47;;;14.72;100.00
63006;BME280;53704;52.532;6.426;2023-07-02T01:37:14;100561.41;;;14.65;100.00
63006;BME280;53704;52.532;6.426;2023-07-02T01:39:40;100557.41;;;14.61;100.00
63006;BME280;53704;52.532;6.426;2023-07-02T01:42:17;100558.06;;;14.63;100.00
63006;BME280;53704;52.532;6.426;2023-07-02T01:44:43;100570.66;;;14.71;100.00
63006;BME280;53704;52.532;6.426;2023-07-02T01:47:09;100560.78;;;14.41;100.00
63006;BME280;53704;52.532;6.426;2023-07-02T01:49:35;100564.00;;;14.52;100.00
63006;BME280;53704;52.532;6.426;2023-07-02T01:52:01;100569.75;;;14.42;100.00
63006;BME280;53704;52.532;6.426;2023-07-02T01:54:27;100570.31;;;14.37;100.00
63006;BME280;53704;52.532;6.426;2023-07-02T01:56:54;100575.44;;;14.47;100.00
63006;BME280;53704;52.532;6.426;2023-07-02T01:59:20;100578.56;;;14.51;100.00
63006;BME280;53704;52.532;6.426;2023-07-02T02:01:45;100582.06;;;14.44;100.00
63006;BME280;53704;52.532;6.426;2023-07-02T02:04:11;100583.22;;;14.35;100.00
63006;BME280;53704;52.532;6.426;2023-07-02T02:06:38;100579.50;;;14.36;100.00
63006;BME280;53704;52.532;6.426;2023-07-02T02:09:04;100576.84;;;14.64;100.00
63006;BME280;53704;52.532;6.426;2023-07-02T02:11:30;100575.47;;;14.54;100.00
63006;BME280;53704;52.532;6.426;2023-07-02T02:13:57;100585.47;;;14.53;100.00
63006;BME280;53704;52.532;6.426;2023-07-02T02:16:23;100584.97;;;14.43;100.00
63006;BME280;53704;52.532;6.426;2023-07-02T02:18:48;100583.56;;;14.47;100.00
63006;BME280;53704;52.532;6.426;2023-07-02T02:21:17;100596.41;;;14.60;100.00
63006;BME280;53704;52.532;6.426;2023-07-02T02:23:43;100589.56;;;14.42;100.00
63006;BME280;53704;52.532;6.426;2023-07-02T02:26:08;100584.25;;;14.34;100.00
63006;BME280;53704;52.532;6.426;2023-07-02T02:28:33;100592.69;;;14.24;100.00
63006;BME280;53704;52.532;6.426;2023-07-02T02:30:59;100584.66;;;14.31;100.00
63006;BME280;53704;52.532;6.426;2023-07-02T02:33:24;100592.19;;;14.14;100.00
63006;BME280;53704;52.532;6.426;2023-07-02T02:35:50;100592.66;;;14.18;100.00
63006;BME280;53704;52.532;6.426;2023-07-02T02:38:15;100598.06;;;14.18;100.00
63006;BME280;53704;52.532;6.426;2023-07-02T02:40:41;100592.25;;;14.21;100.00
63006;BME280;53704;52.532;6.426;2023-07-02T02:43:06;100593.88;;;14.15;100.00
63006;BME280;53704;52.532;6.426;2023-07-02T02:45:32;100602.06;;;14.00;100.00
63006;BME280;53704;52.532;6.426;2023-07-02T02:47:57;100595.84;;;13.85;100.00
63006;BME280;53704;52.532;6.426;2023-07-02T02:50:23;100593.81;;;13.87;100.00
63006;BME280;53704;52.532;6.426;2023-07-02T02:52:48;100596.94;;;13.90;100.00
63006;BME280;53704;52.532;6.426;2023-07-02T02:55:13;100593.41;;;13.90;100.00
63006;BME280;53704;52.532;6.426;2023-07-02T02:57:39;100600.88;;;13.88;100.00
63006;BME280;53704;52.532;6.426;2023-07-02T03:00:05;100597.66;;;13.78;100.00
63006;BME280;53704;52.532;6.426;2023-07-02T03:02:32;100597.03;;;13.61;100.00
63006;BME280;53704;52.532;6.426;2023-07-02T03:04:58;100606.63;;;13.63;100.00
63006;BME280;53704;52.532;6.426;2023-07-02T03:07:28;100603.59;;;13.36;100.00
63006;BME280;53704;52.532;6.426;2023-07-02T03:09:53;100607.00;;;13.30;100.00
63006;BME280;53704;52.532;6.426;2023-07-02T03:12:19;100601.78;;;13.29;100.00
63006;BME280;53704;52.532;6.426;2023-07-02T03:14:44;100607.75;;;13.54;100.00
63006;BME280;53704;52.532;6.426;2023-07-02T03:17:10;100608.22;;;13.28;100.00
63006;BME280;53704;52.532;6.426;2023-07-02T03:19:35;100617.13;;;13.36;100.00
63006;BME280;53704;52.532;6.426;2023-07-02T03:22:00;100615.31;;;13.29;100.00
63006;BME280;53704;52.532;6.426;2023-07-02T03:24:26;100618.66;;;13.31;100.00
63006;BME280;53704;52.532;6.426;2023-07-02T03:26:51;100621.16;;;13.32;100.00
63006;BME280;53704;52.532;6.426;2023-07-02T03:29:17;100620.09;;;13.42;100.00
63006;BME280;53704;52.532;6.426;2023-07-02T03:31:45;100619.03;;;13.28;100.00
63006;BME280;53704;52.532;6.426;2023-07-02T03:34:10;100626.38;;;12.89;100.00
63006;BME280;53704;52.532;6.426;2023-07-02T03:36:37;100627.25;;;13.05;100.00
63006;BME280;53704;52.532;6.426;2023-07-02T03:39:03;100629.44;;;13.01;100.00
63006;BME280;53704;52.532;6.426;2023-07-02T03:41:29;100636.81;;;12.92;100.00
63006;BME280;53704;52.532;6.426;2023-07-02T03:43:54;100631.97;;;13.02;100.00
63006;BME280;53704;52.532;6.426;2023-07-02T03:46:20;100625.28;;;12.98;100.00
63006;BME280;53704;52.532;6.426;2023-07-02T03:48:45;100627.28;;;12.96;100.00
63006;BME280;53704;52.532;6.426;2023-07-02T03:51:11;100631.03;;;12.95;100.00
63006;BME280;53704;52.532;6.426;2023-07-02T03:53:40;100634.97;;;12.70;100.00
63006;BME280;53704;52.532;6.426;2023-07-02T03:56:05;100631.38;;;12.77;100.00
63006;BME280;53704;52.532;6.426;2023-07-02T03:58:31;100639.91;;;12.66;100.00
63006;BME280;53704;52.532;6.426;2023-07-02T04:00:56;100634.78;;;12.71;100.00
63006;BME280;53704;52.532;6.426;2023-07-02T04:03:21;100639.38;;;12.85;100.00
63006;BME280;53704;52.532;6.426;2023-07-02T04:05:47;100639.97;;;12.81;100.00
63006;BME280;53704;52.532;6.426;2023-07-02T04:08:12;100639.97;;;12.81;100.00
63006;BME280;53704;52.532;6.426;2023-07-02T04:10:38;100648.97;;;12.73;100.00
63006;BME280;53704;52.532;6.426;2023-07-02T04:13:03;100647.44;;;12.56;100.00
63006;BME280;53704;52.532;6.426;2023-07-02T04:15:29;100648.25;;;12.56;100.00
63006;BME280;53704;52.532;6.426;2023-07-02T04:17:54;100645.03;;;12.61;100.00
63006;BME280;53704;52.532;6.426;2023-07-02T04:20:20;100647.72;;;12.61;100.00
63006;BME280;53704;52.532;6.426;2023-07-02T04:22:46;100650.16;;;12.71;100.00
63006;BME280;53704;52.532;6.426;2023-07-02T04:25:12;100651.97;;;12.55;100.00
63006;BME280;53704;52.532;6.426;2023-07-02T04:27:41;100654.13;;;12.60;100.00
63006;BME280;53704;52.532;6.426;2023-07-02T04:30:07;100657.19;;;12.57;100.00
63006;BME280;53704;52.532;6.426;2023-07-02T04:32:33;100654.03;;;12.53;100.00
63006;BME280;53704;52.532;6.426;2023-07-02T04:34:59;100659.34;;;12.61;100.00
63006;BME280;53704;52.532;6.426;2023-07-02T04:37:24;100655.72;;;12.54;100.00
63006;BME280;53704;52.532;6.426;2023-07-02T04:39:50;100659.00;;;12.64;100.00
63006;BME280;53704;52.532;6.426;2023-07-02T04:42:15;100658.06;;;12.57;100.00
63006;BME280;53704;52.532;6.426;2023-07-02T04:44:41;100652.94;;;12.62;100.00
63006;BME280;53704;52.532;6.426;2023-07-02T04:47:08;100660.31;;;12.69;100.00
63006;BME280;53704;52.532;6.426;2023-07-02T04:49:34;100662.66;;;12.72;100.00
63006;BME280;53704;52.532;6.426;2023-07-02T04:51:59;100663.59;;;12.79;100.00
63006;BME280;53704;52.532;6.426;2023-07-02T04:54:25;100665.28;;;12.80;100.00
63006;BME280;53704;52.532;6.426;2023-07-02T04:56:50;100668.91;;;12.87;100.00
63006;BME280;53704;52.532;6.426;2023-07-02T04:59:16;100671.94;;;12.92;100.00
63006;BME280;53704;52.532;6.426;2023-07-02T05:01:42;100680.00;;;12.77;100.00
63006;BME280;53704;52.532;6.426;2023-07-02T05:04:10;100681.34;;;12.96;100.00
63006;BME280;53704;52.532;6.426;2023-07-02T05:06:36;100673.69;;;12.85;100.00
63006;BME280;53704;52.532;6.426;2023-07-02T05:09:02;100684.03;;;12.96;100.00
63006;BME280;53704;52.532;6.426;2023-07-02T05:11:27;100666.19;;;13.10;100.00
63006;BME280;53704;52.532;6.426;2023-07-02T05:13:53;100677.16;;;13.09;100.00
63006;BME280;53704;52.532;6.426;2023-07-02T05:16:18;100682.25;;;13.27;100.00
63006;BME280;53704;52.532;6.426;2023-07-02T05:18:44;100680.66;;;13.17;100.00
63006;BME280;53704;52.532;6.426;2023-07-02T05:21:11;100683.25;;;13.26;100.00
63006;BME280;53704;52.532;6.426;2023-07-02T05:23:36;100678.25;;;13.37;100.00
63006;BME280;53704;52.532;6.426;2023-07-02T05:26:02;100689.38;;;13.43;100.00
63006;BME280;53704;52.532;6.426;2023-07-02T05:28:27;100687.03;;;13.39;100.00
63006;BME280;53704;52.532;6.426;2023-07-02T05:30:53;100684.41;;;13.46;100.00
63006;BME280;53704;52.532;6.426;2023-07-02T05:33:18;100686.19;;;13.54;100.00
63006;BME280;53704;52.532;6.426;2023-07-02T05:35:43;100684.50;;;13.53;100.00
63006;BME280;53704;52.532;6.426;2023-07-02T05:38:11;100687.97;;;13.47;100.00
63006;BME280;53704;52.532;6.426;2023-07-02T05:40:36;100692.16;;;13.49;100.00
63006;BME280;53704;52.532;6.426;2023-07-02T05:43:02;100685.91;;;13.49;100.00
63006;BME280;53704;52.532;6.426;2023-07-02T05:45:28;100692.81;;;13.51;100.00
63006;BME280;53704;52.532;6.426;2023-07-02T05:47:54;100688.44;;;13.65;100.00
63006;BME280;53704;52.532;6.426;2023-07-02T05:50:19;100686.19;;;13.69;100.00
63006;BME280;53704;52.532;6.426;2023-07-02T05:52:45;100692.22;;;13.71;100.00
63006;BME280;53704;52.532;6.426;2023-07-02T05:55:11;100694.63;;;13.96;100.00
63006;BME280;53704;52.532;6.426;2023-07-02T05:57:37;100690.72;;;13.98;100.00
63006;BME280;53704;52.532;6.426;2023-07-02T06:00:04;100700.41;;;14.07;100.00
63006;BME280;53704;52.532;6.426;2023-07-02T06:02:30;100700.78;;;14.04;100.00
63006;BME280;53704;52.532;6.426;2023-07-02T06:04:56;100693.44;;;13.98;100.00
63006;BME280;53704;52.532;6.426;2023-07-02T06:07:22;100703.50;;;14.04;100.00
63006;BME280;53704;52.532;6.426;2023-07-02T06:09:47;100713.47;;;14.19;100.00
63006;BME280;53704;52.532;6.426;2023-07-02T06:12:13;100701.00;;;14.24;100.00
63006;BME280;53704;52.532;6.426;2023-07-02T06:14:38;100713.53;;;14.25;100.00
63006;BME280;53704;52.532;6.426;2023-07-02T06:17:04;100715.72;;;14.37;100.00
63006;BME280;53704;52.532;6.426;2023-07-02T06:19:31;100711.44;;;14.42;100.00
63006;BME280;53704;52.532;6.426;2023-07-02T06:21:57;100713.56;;;14.47;100.00
63006;BME280;53704;52.532;6.426;2023-07-02T06:24:22;100713.38;;;14.48;100.00
63006;BME280;53704;52.532;6.426;2023-07-02T06:26:48;100715.59;;;14.60;100.00
63006;BME280;53704;52.532;6.426;2023-07-02T06:29:13;100717.59;;;14.58;100.00
63006;BME280;53704;52.532;6.426;2023-07-02T06:31:39;100721.56;;;14.77;100.00
63006;BME280;53704;52.532;6.426;2023-07-02T06:34:04;100716.97;;;14.71;100.00
63006;BME280;53704;52.532;6.426;2023-07-02T06:36:30;100718.09;;;14.83;100.00
63006;BME280;53704;52.532;6.426;2023-07-02T06:38:55;100713.63;;;14.75;100.00
63006;BME280;53704;52.532;6.426;2023-07-02T06:41:20;100717.06;;;14.84;100.00
63006;BME280;53704;52.532;6.426;2023-07-02T06:43:46;100725.38;;;14.82;100.00
63006;BME280;53704;52.532;6.426;2023-07-02T06:46:12;100723.59;;;14.90;100.00
63006;BME280;53704;52.532;6.426;2023-07-02T06:48:37;100726.03;;;14.84;100.00
63006;BME280;53704;52.532;6.426;2023-07-02T06:51:03;100729.00;;;14.90;100.00
63006;BME280;53704;52.532;6.426;2023-07-02T06:53:28;100720.34;;;14.79;100.00
63006;BME280;53704;52.532;6.426;2023-07-02T06:55:54;100728.50;;;14.79;100.00
63006;BME280;53704;52.532;6.426;2023-07-02T06:58:19;100736.63;;;14.79;100.00
63006;BME280;53704;52.532;6.426;2023-07-02T07:00:45;100730.56;;;14.77;100.00
63006;BME280;53704;52.532;6.426;2023-07-02T07:03:10;100748.63;;;14.92;100.00
63006;BME280;53704;52.532;6.426;2023-07-02T07:05:36;100753.28;;;14.98;100.00
63006;BME280;53704;52.532;6.426;2023-07-02T07:08:01;100755.84;;;15.06;100.00
63006;BME280;53704;52.532;6.426;2023-07-02T07:10:27;100756.47;;;15.08;100.00
63006;BME280;53704;52.532;6.426;2023-07-02T07:12:52;100763.81;;;15.14;100.00
63006;BME280;53704;52.532;6.426;2023-07-02T07:15:17;100767.44;;;15.22;100.00
63006;BME280;53704;52.532;6.426;2023-07-02T07:17:43;100770.78;;;15.24;100.00
63006;BME280;53704;52.532;6.426;2023-07-02T07:20:09;100779.16;;;15.29;100.00
63006;BME280;53704;52.532;6.426;2023-07-02T07:22:34;100780.31;;;15.41;100.00
63006;BME280;53704;52.532;6.426;2023-07-02T07:25:00;100767.16;;;15.38;100.00
63006;BME280;53704;52.532;6.426;2023-07-02T07:27:25;100786.88;;;15.53;100.00
63006;BME280;53704;52.532;6.426;2023-07-02T07:29:50;100775.72;;;15.70;100.00
63006;BME280;53704;52.532;6.426;2023-07-02T07:32:16;100775.72;;;15.70;100.00
63006;BME280;53704;52.532;6.426;2023-07-02T07:34:42;100773.13;;;15.83;100.00
63006;BME280;53704;52.532;6.426;2023-07-02T07:37:08;100774.47;;;16.01;100.00
63006;BME280;53704;52.532;6.426;2023-07-02T07:39:33;100785.19;;;16.16;100.00
63006;BME280;53704;52.532;6.426;2023-07-02T07:41:59;100779.31;;;16.12;100.00
63006;BME280;53704;52.532;6.426;2023-07-02T07:44:24;100788.16;;;16.21;100.00
63006;BME280;53704;52.532;6.426;2023-07-02T07:46:54;100786.59;;;16.05;100.00
63006;BME280;53704;52.532;6.426;2023-07-02T07:49:21;100788.47;;;16.04;100.00
63006;BME280;53704;52.532;6.426;2023-07-02T07:51:47;100793.34;;;16.22;100.00
63006;BME280;53704;52.532;6.426;2023-07-02T07:54:12;100791.94;;;16.26;100.00
63006;BME280;53704;52.532;6.426;2023-07-02T07:56:38;100790.50;;;16.37;100.00
63006;BME280;53704;52.532;6.426;2023-07-02T07:59:03;100791.59;;;16.50;100.00
63006;BME280;53704;52.532;6.426;2023-07-02T08:01:29;100789.50;;;16.52;100.00
63006;BME280;53704;52.532;6.426;2023-07-02T08:03:54;100794.13;;;16.58;100.00
63006;BME280;53704;52.532;6.426;2023-07-02T08:06:20;100798.06;;;16.49;100.00
63006;BME280;53704;52.532;6.426;2023-07-02T08:08:45;100796.88;;;16.64;100.00
63006;BME280;53704;52.532;6.426;2023-07-02T08:11:11;100805.09;;;16.85;100.00
63006;BME280;53704;52.532;6.426;2023-07-02T08:13:37;100808.88;;;16.90;100.00
63006;BME280;53704;52.532;6.426;2023-07-02T08:16:03;100810.47;;;16.64;100.00
63006;BME280;53704;52.532;6.426;2023-07-02T08:18:28;100811.44;;;16.43;100.00
63006;BME280;53704;52.532;6.426;2023-07-02T08:20:53;100819.09;;;16.26;100.00
63006;BME280;53704;52.532;6.426;2023-07-02T08:23:19;100824.53;;;16.26;100.00
63006;BME280;53704;52.532;6.426;2023-07-02T08:25:45;100820.50;;;16.57;100.00
63006;BME280;53704;52.532;6.426;2023-07-02T08:28:10;100814.72;;;16.87;100.00
63006;BME280;53704;52.532;6.426;2023-07-02T08:30:35;100813.72;;;17.22;100.00
63006;BME280;53704;52.532;6.426;2023-07-02T08:33:01;100819.78;;;16.97;100.00
63006;BME280;53704;52.532;6.426;2023-07-02T08:35:26;100825.84;;;17.06;100.00
63006;BME280;53704;52.532;6.426;2023-07-02T08:37:52;100824.31;;;16.83;100.00
63006;BME280;53704;52.532;6.426;2023-07-02T08:40:21;100826.47;;;16.88;100.00
63006;BME280;53704;52.532;6.426;2023-07-02T08:42:47;100822.22;;;16.78;100.00
63006;BME280;53704;52.532;6.426;2023-07-02T08:45:14;100818.00;;;16.76;100.00
63006;BME280;53704;52.532;6.426;2023-07-02T08:47:41;100827.94;;;17.04;100.00
63006;BME280;53704;52.532;6.426;2023-07-02T08:50:07;100822.13;;;17.40;100.00
63006;BME280;53704;52.532;6.426;2023-07-02T08:52:33;100815.41;;;17.63;100.00
63006;BME280;53704;52.532;6.426;2023-07-02T08:54:59;100825.03;;;17.85;100.00
63006;BME280;53704;52.532;6.426;2023-07-02T08:57:24;100821.25;;;17.80;100.00
63006;BME280;53704;52.532;6.426;2023-07-02T08:59:50;100826.09;;;17.58;100.00
63006;BME280;53704;52.532;6.426;2023-07-02T09:02:17;100835.09;;;17.25;100.00
63006;BME280;53704;52.532;6.426;2023-07-02T09:04:43;100836.56;;;17.27;100.00
63006;BME280;53704;52.532;6.426;2023-07-02T09:07:09;100845.34;;;17.29;100.00
63006;BME280;53704;52.532;6.426;2023-07-02T09:09:49;100843.25;;;17.71;100.00
63006;BME280;53704;52.532;6.426;2023-07-02T09:12:25;100843.25;;;18.05;100.00
63006;BME280;53704;52.532;6.426;2023-07-02T09:14:58;100853.94;;;18.06;100.00
63006;BME280;53704;52.532;6.426;2023-07-02T09:17:29;100855.19;;;17.97;100.00
63006;BME280;53704;52.532;6.426;2023-07-02T09:19:55;100846.50;;;18.34;100.00
63006;BME280;53704;52.532;6.426;2023-07-02T09:22:20;100845.94;;;18.70;100.00
63006;BME280;53704;52.532;6.426;2023-07-02T09:25:12;100840.25;;;18.72;100.00
63006;BME280;53704;52.532;6.426;2023-07-02T09:27:41;100856.59;;;18.26;100.00
63006;BME280;53704;52.532;6.426;2023-07-02T09:30:08;100851.13;;;18.78;100.00
63006;BME280;53704;52.532;6.426;2023-07-02T09:32:34;100848.22;;;18.87;100.00
63006;BME280;53704;52.532;6.426;2023-07-02T09:35:00;100832.41;;;18.95;100.00
63006;BME280;53704;52.532;6.426;2023-07-02T09:37:26;100847.34;;;19.18;100.00
63006;BME280;53704;52.532;6.426;2023-07-02T09:39:53;100843.50;;;19.32;100.00
63006;BME280;53704;52.532;6.426;2023-07-02T09:42:20;100852.31;;;18.96;99.61
63006;BME280;53704;52.532;6.426;2023-07-02T09:44:46;100844.19;;;18.89;97.60
63006;BME280;53704;52.532;6.426;2023-07-02T09:47:13;100842.78;;;19.69;98.41
63006;BME280;53704;52.532;6.426;2023-07-02T09:50:02;100838.69;;;20.22;100.00
63006;BME280;53704;52.532;6.426;2023-07-02T09:52:31;100844.97;;;20.41;98.11
63006;BME280;53704;52.532;6.426;2023-07-02T09:54:57;100851.06;;;20.43;91.80
63006;BME280;53704;52.532;6.426;2023-07-02T09:57:22;100846.53;;;20.86;96.95
63006;BME280;53704;52.532;6.426;2023-07-02T09:59:48;100849.16;;;20.43;90.77
63006;BME280;53704;52.532;6.426;2023-07-02T10:02:15;100848.91;;;20.08;89.00
63006;BME280;53704;52.532;6.426;2023-07-02T10:04:44;100842.41;;;20.09;92.36
63006;BME280;53704;52.532;6.426;2023-07-02T10:07:10;100852.72;;;20.63;91.74
63006;BME280;53704;52.532;6.426;2023-07-02T10:09:42;100856.69;;;20.67;82.68
63006;BME280;53704;52.532;6.426;2023-07-02T10:12:21;100865.34;;;20.27;80.61
63006;BME280;53704;52.532;6.426;2023-07-02T10:14:48;100874.22;;;20.59;85.47
63006;BME280;53704;52.532;6.426;2023-07-02T10:17:33;100876.88;;;20.84;85.29
63006;BME280;53704;52.532;6.426;2023-07-02T10:20:08;100869.41;;;20.91;88.81
63006;BME280;53704;52.532;6.426;2023-07-02T10:22:50;100874.50;;;20.88;85.73
63006;BME280;53704;52.532;6.426;2023-07-02T10:25:36;100878.69;;;20.35;88.90
63006;BME280;53704;52.532;6.426;2023-07-02T10:28:23;100867.75;;;19.98;91.93
63006;BME280;53704;52.532;6.426;2023-07-02T10:30:52;100874.28;;;20.52;92.13
63006;BME280;53704;52.532;6.426;2023-07-02T10:33:19;100877.25;;;20.51;91.83
63006;BME280;53704;52.532;6.426;2023-07-02T10:35:46;100866.19;;;21.25;95.00
63006;BME280;53704;52.532;6.426;2023-07-02T10:38:19;100876.19;;;21.19;89.33
63006;BME280;53704;52.532;6.426;2023-07-02T10:40:45;100877.34;;;21.11;85.65
63006;BME280;53704;52.532;6.426;2023-07-02T10:43:11;100877.13;;;21.25;82.92
63006;BME280;53704;52.532;6.426;2023-07-02T10:45:37;100870.34;;;21.69;85.49
63006;BME280;53704;52.532;6.426;2023-07-02T10:48:03;100879.75;;;21.31;90.12
63006;BME280;53704;52.532;6.426;2023-07-02T10:50:30;100890.56;;;20.84;88.12
63006;BME280;53704;52.532;6.426;2023-07-02T10:52:57;100898.75;;;20.29;93.07
63006;BME280;53704;52.532;6.426;2023-07-02T10:55:24;100903.84;;;20.43;87.74
63006;BME280;53704;52.532;6.426;2023-07-02T10:57:51;100896.63;;;20.86;87.12
63006;BME280;53704;52.532;6.426;2023-07-02T11:00:27;100897.41;;;21.36;89.49
63006;BME280;53704;52.532;6.426;2023-07-02T11:02:52;100897.19;;;21.37;87.72
63006;BME280;53704;52.532;6.426;2023-07-02T11:05:18;100900.09;;;20.93;89.99
63006;BME280;53704;52.532;6.426;2023-07-02T11:07:44;100899.75;;;20.71;86.65
63006;BME280;53704;52.532;6.426;2023-07-02T11:10:10;100893.50;;;21.43;90.43
63006;BME280;53704;52.532;6.426;2023-07-02T11:12:42;100905.94;;;21.58;86.55
63006;BME280;53704;52.532;6.426;2023-07-02T11:17:33;100894.19;;;22.40;80.49
63006;BME280;53704;52.532;6.426;2023-07-02T11:19:59;100903.00;;;22.07;76.67
63006;BME280;53704;52.532;6.426;2023-07-02T11:22:35;100902.13;;;21.17;78.08
63006;BME280;53704;52.532;6.426;2023-07-02T11:25:17;100899.66;;;21.93;79.53
63006;BME280;53704;52.532;6.426;2023-07-02T11:27:43;100910.13;;;21.60;83.12
63006;BME280;53704;52.532;6.426;2023-07-02T11:30:10;100903.63;;;22.32;76.59
63006;BME280;53704;52.532;6.426;2023-07-02T11:32:53;100906.69;;;22.48;67.64
63006;BME280;53704;52.532;6.426;2023-07-02T11:35:19;100900.16;;;22.37;60.71
63006;BME280;53704;52.532;6.426;2023-07-02T11:37:45;100896.22;;;22.45;62.83
63006;BME280;53704;52.532;6.426;2023-07-02T11:40:12;100905.47;;;22.67;64.35
63006;BME280;53704;52.532;6.426;2023-07-02T11:42:38;100913.94;;;21.71;66.24
63006;BME280;53704;52.532;6.426;2023-07-02T11:45:07;100918.63;;;21.94;69.65
63006;BME280;53704;52.532;6.426;2023-07-02T11:47:33;100916.72;;;22.42;67.45
63006;BME280;53704;52.532;6.426;2023-07-02T11:49:58;100917.03;;;22.69;65.54
63006;BME280;53704;52.532;6.426;2023-07-02T11:52:25;100915.31;;;23.21;62.20
63006;BME280;53704;52.532;6.426;2023-07-02T11:54:50;100925.72;;;23.07;62.82
63006;BME280;53704;52.532;6.426;2023-07-02T11:57:16;100914.09;;;23.28;61.50
63006;BME280;53704;52.532;6.426;2023-07-02T11:59:41;100914.63;;;23.42;55.19
63006;BME280;53704;52.532;6.426;2023-07-02T12:02:07;100918.13;;;23.55;53.24
63006;BME280;53704;52.532;6.426;2023-07-02T12:04:33;100914.34;;;23.27;55.95
63006;BME280;53704;52.532;6.426;2023-07-02T12:06:59;100919.28;;;23.13;59.17
63006;BME280;53704;52.532;6.426;2023-07-02T12:09:26;100913.75;;;23.25;55.65
63006;BME280;53704;52.532;6.426;2023-07-02T12:11:52;100926.50;;;23.31;53.30
63006;BME280;53704;52.532;6.426;2023-07-02T12:14:18;100931.19;;;22.90;53.14
63006;BME280;53704;52.532;6.426;2023-07-02T12:16:43;100924.59;;;22.91;51.54
63006;BME280;53704;52.532;6.426;2023-07-02T12:19:09;100935.81;;;23.30;51.85
63006;BME280;53704;52.532;6.426;2023-07-02T12:21:35;100933.81;;;24.05;53.44
63006;BME280;53704;52.532;6.426;2023-07-02T12:24:00;100931.66;;;24.46;54.41
63006;BME280;53704;52.532;6.426;2023-07-02T12:26:26;100928.53;;;24.77;50.87
63006;BME280;53704;52.532;6.426;2023-07-02T12:28:51;100939.34;;;24.61;47.97
63006;BME280;53704;52.532;6.426;2023-07-02T12:31:17;100934.41;;;23.90;43.63
63006;BME280;53704;52.532;6.426;2023-07-02T12:33:43;100941.34;;;23.64;48.11
63006;BME280;53704;52.532;6.426;2023-07-02T12:36:08;100941.34;;;22.77;46.31
63006;BME280;53704;52.532;6.426;2023-07-02T12:38:35;100947.53;;;23.71;48.77
63006;BME280;53704;52.532;6.426;2023-07-02T12:41:00;100947.34;;;23.44;50.52
63006;BME280;53704;52.532;6.426;2023-07-02T12:43:25;100944.50;;;24.01;47.92